HSA weather

Stennis International Airport
Bay St Louis, Mississippi, United States

Public forecast

Using degrees Fahrenheit for public forecast. Weather courtesy of forecast.io.

METAR (pilot weather report)

Retrieved 2019/07/20 14:50 UTC (50 minutes ago):

KHSA 201450Z 00000KT 7SM CLR 26/25 A3006

TAF (pilot weather forecast)

Forecast is more than 12 hours old.

Retrieved 2012/07/18 18:57 UTC (7 years ago):

TAF COR KHSA 181754Z 1818/1918 18005KT P6SM VCSH SCT040 BKN200 TEMPO 1819/1823 VRB15G25KT 3SM TSRA BKN030CB OVC060 FM190200 VRB03KT P6SM SCT040 BKN200 FM191500 31005KT P6SM SCT025 AMD NOT SKED AFT 190000